Time,TemperatureF,DewpointF,PressureIn,WindDirection,WindDirectionDegrees,WindSpeedMPH,WindSpeedGustMPH,Humidity,HourlyPrecipIn,Conditions,Clouds,dailyrainin,SoftwareType,DateUTC
2013-03-15 00:00:00,0.0,0.0,30.06,NNW,331,11.9,17.4,0,0.00,,---,0.00,VWS V14.01,2013-03-15 04:00:00,
2013-03-15 00:05:00,0.0,0.0,30.06,NW,307,10.1,13.2,0,0.00,,---,0.00,VWS V14.01,2013-03-15 04:05:00,
2013-03-15 00:08:00,0.0,0.0,30.06,NNW,335,12.3,12.3,0,0.00,,---,0.00,VWS V14.01,2013-03-15 04:08:00,
2013-03-15 00:13:00,0.0,0.0,30.06,NW,312,15.4,15.9,0,0.00,,---,0.00,VWS V14.01,2013-03-15 04:13:00,
2013-03-15 00:19:00,0.0,0.0,30.06,NNE,21,8.3,11.0,0,0.00,,---,0.00,VWS V14.01,2013-03-15 04:19:00,
2013-03-15 00:24:00,0.0,0.0,30.06,NNW,328,8.1,10.5,0,0.00,,---,0.00,VWS V14.01,2013-03-15 04:24:00,
2013-03-15 00:29:00,0.0,0.0,30.06,NNW,343,13.2,16.3,0,0.00,,---,0.00,VWS V14.01,2013-03-15 04:29:00,
2013-03-15 00:34:00,0.0,0.0,30.06,NNW,339,16.3,16.3,0,0.00,,---,0.00,VWS V14.01,2013-03-15 04:34:00,
2013-03-15 00:40:00,0.0,0.0,30.06,NW,311,8.7,12.8,0,0.00,,---,0.00,VWS V14.01,2013-03-15 04:40:00,
2013-03-15 00:46:00,0.0,0.0,30.06,NW,307,8.7,12.3,0,0.00,,---,0.00,VWS V14.01,2013-03-15 04:46:00,
2013-03-15 00:51:00,0.0,0.0,30.06,NNW,341,8.7,10.1,0,0.00,,---,0.00,VWS V14.01,2013-03-15 04:51:00,
2013-03-15 00:56:00,0.0,0.0,30.06,NW,310,16.8,16.8,0,0.00,,---,0.00,VWS V14.01,2013-03-15 04:56:00,
2013-03-15 01:01:00,0.0,0.0,30.06,NW,307,10.1,11.9,0,0.00,,---,0.00,VWS V14.01,2013-03-15 05:01:00,
2013-03-15 01:06:00,0.0,0.0,30.06,NW,313,13.6,15.4,0,0.00,,---,0.00,VWS V14.01,2013-03-15 05:06:00,
2013-03-15 01:11:00,0.0,0.0,30.06,NW,322,11.0,17.0,0,0.00,,---,0.00,VWS V14.01,2013-03-15 05:11:00,
2013-03-15 01:16:00,0.0,0.0,30.06,North,9,8.7,10.1,0,0.00,,---,0.00,VWS V14.01,2013-03-15 05:16:00,
2013-03-15 01:21:00,0.0,0.0,30.06,WNW,286,9.6,11.9,0,0.00,,---,0.00,VWS V14.01,2013-03-15 05:21:00,
2013-03-15 01:26:00,0.0,0.0,30.06,NNW,340,5.4,10.1,0,0.00,,---,0.00,VWS V14.01,2013-03-15 05:26:00,
2013-03-15 01:31:00,0.0,0.0,30.06,NNW,342,8.7,15.4,0,0.00,,---,0.00,VWS V14.01,2013-03-15 05:31:00,
2013-03-15 01:36:00,0.0,0.0,30.06,North,0,12.3,12.3,0,0.00,,---,0.00,VWS V14.01,2013-03-15 05:36:00,
2013-03-15 01:41:00,0.0,0.0,30.06,NNW,333,10.5,14.1,0,0.00,,---,0.00,VWS V14.01,2013-03-15 05:41:00,
2013-03-15 01:46:00,0.0,0.0,30.06,NW,323,10.5,10.5,0,0.00,,---,0.00,VWS V14.01,2013-03-15 05:46:00,
2013-03-15 01:51:00,0.0,0.0,30.06,NW,314,8.1,12.8,0,0.00,,---,0.00,VWS V14.01,2013-03-15 05:51:00,
2013-03-15 01:56:00,0.0,0.0,30.06,NNW,335,12.3,13.2,0,0.00,,---,0.00,VWS V14.01,2013-03-15 05:56:00,
2013-03-15 02:01:00,0.0,0.0,30.06,NNW,337,10.1,11.4,0,0.00,,---,0.00,VWS V14.01,2013-03-15 06:01:00,
2013-03-15 02:06:00,0.0,0.0,30.06,NW,315,11.4,11.4,0,0.00,,---,0.00,VWS V14.01,2013-03-15 06:06:00,
2013-03-15 02:11:00,0.0,0.0,30.06,WNW,300,11.0,15.0,0,0.00,,---,0.00,VWS V14.01,2013-03-15 06:11:00,
2013-03-15 02:17:00,0.0,0.0,30.06,NNW,343,12.8,13.6,0,0.00,,---,0.00,VWS V14.01,2013-03-15 06:17:00,
2013-03-15 02:22:00,0.0,0.0,30.06,NW,310,8.7,11.0,0,0.00,,---,0.00,VWS V14.01,2013-03-15 06:22:00,
2013-03-15 02:27:00,0.0,0.0,30.06,NW,321,13.2,13.2,0,0.00,,---,0.00,VWS V14.01,2013-03-15 06:27:00,
2013-03-15 02:32:00,0.0,0.0,30.06,NNW,330,5.8,10.5,0,0.00,,---,0.00,VWS V14.01,2013-03-15 06:32:00,
2013-03-15 02:38:00,0.0,0.0,30.06,NW,315,5.8,8.7,0,0.00,,---,0.00,VWS V14.01,2013-03-15 06:38:00,
2013-03-15 02:43:00,0.0,0.0,30.06,NW,322,8.7,11.0,0,0.00,,---,0.00,VWS V14.01,2013-03-15 06:43:00,
2013-03-15 02:48:00,0.0,0.0,30.06,NW,312,8.3,8.7,0,0.00,,---,0.00,VWS V14.01,2013-03-15 06:48:00,
2013-03-15 02:53:00,0.0,0.0,30.06,NNE,19,3.6,10.5,0,0.00,,---,0.00,VWS V14.01,2013-03-15 06:53:00,
2013-03-15 02:59:00,0.0,0.0,30.06,NW,319,4.9,8.7,0,0.00,,---,0.00,VWS V14.01,2013-03-15 06:59:00,
2013-03-15 03:04:00,0.0,0.0,30.06,WNW,286,4.0,9.6,0,0.00,,---,0.00,VWS V14.01,2013-03-15 07:04:00,
2013-03-15 03:10:00,0.0,0.0,30.06,NW,315,8.1,8.1,0,0.00,,---,0.00,VWS V14.01,2013-03-15 07:10:00,
2013-03-15 03:16:00,0.0,0.0,30.06,WNW,302,4.9,8.7,0,0.00,,---,0.00,VWS V14.01,2013-03-15 07:16:00,
2013-03-15 03:21:00,0.0,0.0,30.06,NW,316,8.3,8.3,0,0.00,,---,0.00,VWS V14.01,2013-03-15 07:21:00,
2013-03-15 03:26:00,0.0,0.0,30.06,NW,314,8.3,8.3,0,0.00,,---,0.00,VWS V14.01,2013-03-15 07:26:00,
2013-03-15 03:32:00,0.0,0.0,30.06,North,353,5.8,12.3,0,0.00,,---,0.00,VWS V14.01,2013-03-15 07:32:00,
2013-03-15 03:37:00,0.0,0.0,30.06,NNW,329,8.3,8.3,0,0.00,,---,0.00,VWS V14.01,2013-03-15 07:37:00,
2013-03-15 03:42:00,0.0,0.0,30.06,WNW,299,3.6,3.6,0,0.00,,---,0.00,VWS V14.01,2013-03-15 07:42:00,
2013-03-15 03:47:00,0.0,0.0,30.06,NW,325,7.6,7.6,0,0.00,,---,0.00,VWS V14.01,2013-03-15 07:47:00,
2013-03-15 03:52:00,0.0,0.0,30.06,NW,310,7.6,7.6,0,0.00,,---,0.00,VWS V14.01,2013-03-15 07:52:00,
2013-03-15 03:57:00,0.0,0.0,30.06,NW,310,4.9,5.4,0,0.00,,---,0.00,VWS V14.01,2013-03-15 07:57:00,
2013-03-15 04:02:00,0.0,0.0,30.06,NW,307,5.8,5.8,0,0.00,,---,0.00,VWS V14.01,2013-03-15 08:02:00,
2013-03-15 04:07:00,0.0,0.0,30.06,NW,314,6.3,6.3,0,0.00,,---,0.00,VWS V14.01,2013-03-15 08:07:00,
2013-03-15 04:12:00,0.0,0.0,30.06,NNW,336,5.8,10.1,0,0.00,,---,0.00,VWS V14.01,2013-03-15 08:12:00,
2013-03-15 04:17:00,0.0,0.0,30.06,WNW,285,5.4,8.1,0,0.00,,---,0.00,VWS V14.01,2013-03-15 08:17:00,
2013-03-15 04:22:00,0.0,0.0,30.06,NW,325,4.0,5.8,0,0.00,,---,0.00,VWS V14.01,2013-03-15 08:22:00,
2013-03-15 04:27:00,0.0,0.0,30.06,NNW,339,5.8,5.8,0,0.00,,---,0.00,VWS V14.01,2013-03-15 08:27:00,
2013-03-15 04:32:00,0.0,0.0,30.06,NW,310,7.6,8.1,0,0.00,,---,0.00,VWS V14.01,2013-03-15 08:32:00,
2013-03-15 04:37:00,0.0,0.0,30.06,NNW,344,5.8,7.6,0,0.00,,---,0.00,VWS V14.01,2013-03-15 08:37:00,
2013-03-15 04:42:00,0.0,0.0,30.06,NNW,335,8.1,9.2,0,0.00,,---,0.00,VWS V14.01,2013-03-15 08:42:00,
2013-03-15 04:47:00,0.0,0.0,30.06,NW,308,6.3,9.6,0,0.00,,---,0.00,VWS V14.01,2013-03-15 08:47:00,
2013-03-15 04:52:00,0.0,0.0,30.06,WNW,291,3.1,4.9,0,0.00,,---,0.00,VWS V14.01,2013-03-15 08:52:00,
2013-03-15 04:57:00,0.0,0.0,30.06,NNW,331,4.0,5.8,0,0.00,,---,0.00,VWS V14.01,2013-03-15 08:57:00,
2013-03-15 05:02:00,0.0,0.0,30.06,North,350,5.8,5.8,0,0.00,,---,0.00,VWS V14.01,2013-03-15 09:02:00,
2013-03-15 05:07:00,0.0,0.0,30.06,NNW,336,4.0,6.3,0,0.00,,---,0.00,VWS V14.01,2013-03-15 09:07:00,
2013-03-15 05:12:00,0.0,0.0,30.06,NW,308,5.8,8.1,0,0.00,,---,0.00,VWS V14.01,2013-03-15 09:12:00,
2013-03-15 05:17:00,0.0,0.0,30.06,NW,318,5.8,5.8,0,0.00,,---,0.00,VWS V14.01,2013-03-15 09:17:00,
2013-03-15 05:22:00,0.0,0.0,30.06,NW,326,7.6,7.6,0,0.00,,---,0.00,VWS V14.01,2013-03-15 09:22:00,
2013-03-15 05:28:00,0.0,0.0,30.06,North,0,3.1,8.3,0,0.00,,---,0.00,VWS V14.01,2013-03-15 09:28:00,
2013-03-15 05:33:00,0.0,0.0,30.06,NNW,336,2.7,5.8,0,0.00,,---,0.00,VWS V14.01,2013-03-15 09:33:00,
2013-03-15 05:38:00,0.0,0.0,30.06,NW,310,5.8,5.8,0,0.00,,---,0.00,VWS V14.01,2013-03-15 09:38:00,
2013-03-15 05:43:00,0.0,0.0,30.06,NW,318,4.0,4.0,0,0.00,,---,0.00,VWS V14.01,2013-03-15 09:43:00,
2013-03-15 05:48:00,0.0,0.0,30.06,WNW,303,3.6,6.3,0,0.00,,---,0.00,VWS V14.01,2013-03-15 09:48:00,
2013-03-15 05:53:00,0.0,0.0,30.06,NW,314,4.0,4.0,0,0.00,,---,0.00,VWS V14.01,2013-03-15 09:53:00,
2013-03-15 05:58:00,0.0,0.0,30.06,NW,308,3.1,3.6,0,0.00,,---,0.00,VWS V14.01,2013-03-15 09:58:00,
2013-03-15 06:03:00,0.0,0.0,30.09,NW,310,2.7,3.1,0,0.00,,---,0.00,VWS V14.01,2013-03-15 10:03:00,
2013-03-15 06:08:00,0.0,0.0,30.09,NW,310,3.1,3.1,0,0.00,,---,0.00,VWS V14.01,2013-03-15 10:08:00,
2013-03-15 06:13:00,0.0,0.0,30.09,NW,310,3.1,3.6,0,0.00,,---,0.00,VWS V14.01,2013-03-15 10:13:00,
2013-03-15 06:18:00,0.0,0.0,30.09,NW,305,3.1,4.5,0,0.00,,---,0.00,VWS V14.01,2013-03-15 10:18:00,
2013-03-15 06:23:00,0.0,0.0,30.09,North,350,2.7,4.0,0,0.00,,---,0.00,VWS V14.01,2013-03-15 10:23:00,
2013-03-15 06:28:00,0.0,0.0,30.09,NW,316,3.1,3.1,0,0.00,,---,0.00,VWS V14.01,2013-03-15 10:28:00,
2013-03-15 06:33:00,0.0,0.0,30.09,NW,305,4.0,8.3,0,0.00,,---,0.00,VWS V14.01,2013-03-15 10:33:00,
2013-03-15 06:38:00,0.0,0.0,30.09,NNW,346,6.3,6.3,0,0.00,,---,0.00,VWS V14.01,2013-03-15 10:38:00,
2013-03-15 06:43:00,0.0,0.0,30.09,NW,325,7.6,7.6,0,0.00,,---,0.00,VWS V14.01,2013-03-15 10:43:00,
2013-03-15 06:48:00,0.0,0.0,30.09,NW,321,8.1,8.1,0,0.00,,---,0.00,VWS V14.01,2013-03-15 10:48:00,
2013-03-15 06:53:00,0.0,0.0,30.09,NW,305,5.4,5.4,0,0.00,,---,0.00,VWS V14.01,2013-03-15 10:53:00,
2013-03-15 06:58:00,0.0,0.0,30.09,NW,311,5.4,6.3,0,0.00,,---,0.00,VWS V14.01,2013-03-15 10:58:00,
2013-03-15 07:03:00,0.0,0.0,30.09,NW,305,4.5,5.8,0,0.00,,---,0.00,VWS V14.01,2013-03-15 11:03:00,
2013-03-15 07:08:00,0.0,0.0,30.09,NW,316,6.3,6.3,0,0.00,,---,0.00,VWS V14.01,2013-03-15 11:08:00,
2013-03-15 07:13:00,0.0,0.0,30.09,NW,304,5.8,5.8,0,0.00,,---,0.00,VWS V14.01,2013-03-15 11:13:00,
2013-03-15 07:18:00,0.0,0.0,30.09,WNW,302,3.6,3.6,0,0.00,,---,0.00,VWS V14.01,2013-03-15 11:18:00,
2013-03-15 07:23:00,0.0,0.0,30.09,WNW,286,2.7,3.6,0,0.00,,---,0.00,VWS V14.01,2013-03-15 11:23:00,
2013-03-15 07:28:00,0.0,0.0,30.09,WNW,303,5.8,5.8,0,0.00,,---,0.00,VWS V14.01,2013-03-15 11:28:00,
2013-03-15 07:33:00,0.0,0.0,30.09,NW,306,5.4,5.4,0,0.00,,---,0.00,VWS V14.01,2013-03-15 11:33:00,
2013-03-15 07:38:00,0.0,0.0,30.09,NW,312,5.4,5.4,0,0.00,,---,0.00,VWS V14.01,2013-03-15 11:38:00,
2013-03-15 07:43:00,0.0,0.0,30.09,NW,317,5.8,5.8,0,0.00,,---,0.00,VWS V14.01,2013-03-15 11:43:00,
2013-03-15 07:48:00,0.0,0.0,30.09,NW,318,5.4,5.4,0,0.00,,---,0.00,VWS V14.01,2013-03-15 11:48:00,
2013-03-15 07:53:00,0.0,0.0,30.09,NW,322,5.4,8.1,0,0.00,,---,0.00,VWS V14.01,2013-03-15 11:53:00,
2013-03-15 07:58:00,0.0,0.0,30.09,WNW,303,6.3,6.3,0,0.00,,---,0.00,VWS V14.01,2013-03-15 11:58:00,
2013-03-15 08:03:00,0.0,0.0,30.09,NW,313,3.1,4.0,0,0.00,,---,0.00,VWS V14.01,2013-03-15 12:03:00,
2013-03-15 08:08:00,0.0,0.0,30.09,NNW,327,5.4,5.4,0,0.00,,---,0.00,VWS V14.01,2013-03-15 12:08:00,
2013-03-15 08:13:00,0.0,0.0,30.09,NW,309,7.2,7.2,0,0.00,,---,0.00,VWS V14.01,2013-03-15 12:13:00,
2013-03-15 08:18:00,0.0,0.0,30.09,NW,312,6.3,6.3,0,0.00,,---,0.00,VWS V14.01,2013-03-15 12:18:00,
2013-03-15 08:23:00,0.0,0.0,30.09,NW,308,5.4,6.3,0,0.00,,---,0.00,VWS V14.01,2013-03-15 12:23:00,
2013-03-15 08:28:00,0.0,0.0,30.09,NW,315,3.1,4.0,0,0.00,,---,0.00,VWS V14.01,2013-03-15 12:28:00,
2013-03-15 08:33:00,0.0,0.0,30.09,NNW,335,6.3,7.6,0,0.00,,---,0.00,VWS V14.01,2013-03-15 12:33:00,
2013-03-15 08:38:00,0.0,0.0,30.09,NW,311,3.6,4.0,0,0.00,,---,0.00,VWS V14.01,2013-03-15 12:38:00,
2013-03-15 08:43:00,0.0,0.0,30.09,NW,324,4.0,5.4,0,0.00,,---,0.00,VWS V14.01,2013-03-15 12:43:00,
2013-03-15 08:48:00,0.0,0.0,30.09,WNW,288,4.0,4.0,0,0.00,,---,0.00,VWS V14.01,2013-03-15 12:48:00,
2013-03-15 08:53:00,0.0,0.0,30.09,NW,321,3.6,3.6,0,0.00,,---,0.00,VWS V14.01,2013-03-15 12:53:00,
2013-03-15 08:58:00,0.0,0.0,30.09,NW,304,5.8,7.6,0,0.00,,---,0.00,VWS V14.01,2013-03-15 12:58:00,
2013-03-15 09:03:00,0.0,0.0,30.09,NNW,328,2.7,6.3,0,0.00,,---,0.00,VWS V14.01,2013-03-15 13:03:00,
2013-03-15 09:08:00,0.0,0.0,30.09,West,266,7.6,7.6,0,0.00,,---,0.00,VWS V14.01,2013-03-15 13:08:00,
2013-03-15 09:13:00,0.0,0.0,30.09,West,274,5.4,5.4,0,0.00,,---,0.00,VWS V14.01,2013-03-15 13:13:00,
2013-03-15 09:18:00,0.0,0.0,30.09,West,276,3.6,5.4,0,0.00,,---,0.00,VWS V14.01,2013-03-15 13:18:00,
2013-03-15 09:23:00,0.0,0.0,30.09,WNW,293,3.6,4.9,0,0.00,,---,0.00,VWS V14.01,2013-03-15 13:23:00,
2013-03-15 09:28:00,0.0,0.0,30.06,West,264,5.4,7.6,0,0.00,,---,0.00,VWS V14.01,2013-03-15 13:28:00,
2013-03-15 09:33:00,0.0,0.0,30.06,West,279,5.4,5.4,0,0.00,,---,0.00,VWS V14.01,2013-03-15 13:33:00,
2013-03-15 09:38:00,0.0,0.0,30.06,West,276,14.5,14.5,0,0.00,,---,0.00,VWS V14.01,2013-03-15 13:38:00,
2013-03-15 09:43:00,0.0,0.0,30.06,WNW,294,10.5,12.8,0,0.00,,---,0.00,VWS V14.01,2013-03-15 13:43:00,
2013-03-15 09:48:00,0.0,0.0,30.06,WNW,302,5.4,6.3,0,0.00,,---,0.00,VWS V14.01,2013-03-15 13:48:00,
2013-03-15 09:53:00,0.0,0.0,30.06,WNW,301,11.0,11.0,0,0.00,,---,0.00,VWS V14.01,2013-03-15 13:53:00,
2013-03-15 09:58:00,0.0,0.0,30.06,WNW,286,10.1,13.2,0,0.00,,---,0.00,VWS V14.01,2013-03-15 13:58:00,
2013-03-15 10:03:00,0.0,0.0,30.06,NW,310,8.7,8.7,0,0.00,,---,0.00,VWS V14.01,2013-03-15 14:03:00,
2013-03-15 10:08:00,0.0,0.0,30.06,WSW,237,7.6,8.7,0,0.00,,---,0.00,VWS V14.01,2013-03-15 14:08:00,
2013-03-15 10:13:00,0.0,0.0,30.06,WNW,286,10.5,11.0,0,0.00,,---,0.00,VWS V14.01,2013-03-15 14:13:00,
2013-03-15 10:18:00,0.0,0.0,30.06,WNW,290,12.3,14.5,0,0.00,,---,0.00,VWS V14.01,2013-03-15 14:18:00,
2013-03-15 10:23:00,0.0,0.0,30.06,WNW,302,8.7,8.7,0,0.00,,---,0.00,VWS V14.01,2013-03-15 14:23:00,
2013-03-15 10:28:00,0.0,0.0,30.06,West,259,4.9,10.1,0,0.00,,---,0.00,VWS V14.01,2013-03-15 14:28:00,
2013-03-15 10:33:00,0.0,0.0,30.06,WNW,301,10.1,11.0,0,0.00,,---,0.00,VWS V14.01,2013-03-15 14:33:00,
2013-03-15 10:38:00,0.0,0.0,30.06,WNW,287,10.1,10.1,0,0.00,,---,0.00,VWS V14.01,2013-03-15 14:38:00,
2013-03-15 10:43:00,0.0,0.0,30.03,West,279,10.1,11.0,0,0.00,,---,0.00,VWS V14.01,2013-03-15 14:43:00,
2013-03-15 10:48:00,0.0,0.0,30.03,NW,310,12.8,12.8,0,0.00,,---,0.00,VWS V14.01,2013-03-15 14:48:00,
2013-03-15 10:53:00,0.0,0.0,30.03,NW,325,14.1,14.5,0,0.00,,---,0.00,VWS V14.01,2013-03-15 14:53:00,
2013-03-15 10:58:00,0.0,0.0,30.03,NW,310,10.5,12.3,0,0.00,,---,0.00,VWS V14.01,2013-03-15 14:58:00,
2013-03-15 11:03:00,0.0,0.0,30.03,WNW,283,8.3,8.7,0,0.00,,---,0.00,VWS V14.01,2013-03-15 15:03:00,
2013-03-15 11:08:00,0.0,0.0,30.03,NW,305,15.4,15.4,0,0.00,,---,0.00,VWS V14.01,2013-03-15 15:08:00,
2013-03-15 11:14:00,0.0,0.0,30.03,WNW,286,15.4,19.7,0,0.00,,---,0.00,VWS V14.01,2013-03-15 15:14:00,
2013-03-15 11:19:00,0.0,0.0,30.03,NNW,327,8.1,8.3,0,0.00,,---,0.00,VWS V14.01,2013-03-15 15:19:00,
2013-03-15 11:24:00,0.0,0.0,30.03,WNW,303,10.5,13.2,0,0.00,,---,0.00,VWS V14.01,2013-03-15 15:24:00,
2013-03-15 11:29:00,0.0,0.0,30.00,NW,312,15.0,15.0,0,0.00,,---,0.00,VWS V14.01,2013-03-15 15:29:00,
2013-03-15 11:34:00,0.0,0.0,30.00,NW,318,8.7,14.5,0,0.00,,---,0.00,VWS V14.01,2013-03-15 15:34:00,
2013-03-15 11:39:00,0.0,0.0,30.00,West,268,11.0,11.0,0,0.00,,---,0.00,VWS V14.01,2013-03-15 15:39:00,
2013-03-15 11:44:00,0.0,0.0,30.00,NNW,344,5.8,12.8,0,0.00,,---,0.00,VWS V14.01,2013-03-15 15:44:00,
2013-03-15 11:49:00,0.0,0.0,30.00,WNW,290,11.0,17.4,0,0.00,,---,0.00,VWS V14.01,2013-03-15 15:49:00,
2013-03-15 11:54:00,0.0,0.0,30.00,West,277,12.3,14.5,0,0.00,,---,0.00,VWS V14.01,2013-03-15 15:54:00,
2013-03-15 11:59:00,0.0,0.0,30.00,SSW,209,12.3,16.3,0,0.00,,---,0.00,VWS V14.01,2013-03-15 15:59:00,
2013-03-15 12:04:00,0.0,0.0,30.00,West,276,11.0,15.4,0,0.00,,---,0.00,VWS V14.01,2013-03-15 16:04:00,
2013-03-15 12:09:00,0.0,0.0,30.00,WNW,282,11.0,17.4,0,0.00,,---,0.00,VWS V14.01,2013-03-15 16:09:00,
2013-03-15 12:14:00,0.0,0.0,30.00,West,275,8.1,15.4,0,0.00,,---,0.00,VWS V14.01,2013-03-15 16:14:00,
2013-03-15 12:19:00,0.0,0.0,30.00,West,273,12.3,12.8,0,0.00,,---,0.00,VWS V14.01,2013-03-15 16:19:00,
2013-03-15 12:24:00,0.0,0.0,30.00,NW,313,10.5,12.8,0,0.00,,---,0.00,VWS V14.01,2013-03-15 16:24:00,
2013-03-15 12:29:00,0.0,0.0,30.00,WNW,283,12.3,12.3,0,0.00,,---,0.00,VWS V14.01,2013-03-15 16:29:00,
2013-03-15 12:34:00,0.0,0.0,30.00,WNW,297,11.0,14.5,0,0.00,,---,0.00,VWS V14.01,2013-03-15 16:34:00,
2013-03-15 12:39:00,0.0,0.0,30.00,West,280,7.6,14.1,0,0.00,,---,0.00,VWS V14.01,2013-03-15 16:39:00,
2013-03-15 12:44:00,0.0,0.0,29.97,WNW,286,10.5,10.5,0,0.00,,---,0.00,VWS V14.01,2013-03-15 16:44:00,
2013-03-15 12:49:00,0.0,0.0,29.97,NW,319,7.6,13.2,0,0.00,,---,0.00,VWS V14.01,2013-03-15 16:49:00,
2013-03-15 12:54:00,0.0,0.0,29.97,West,265,12.8,15.0,0,0.00,,---,0.00,VWS V14.01,2013-03-15 16:54:00,
2013-03-15 12:59:00,0.0,0.0,29.97,West,276,13.2,22.8,0,0.00,,---,0.00,VWS V14.01,2013-03-15 16:59:00,
2013-03-15 13:04:00,0.0,0.0,29.97,WNW,287,8.7,13.2,0,0.00,,---,0.00,VWS V14.01,2013-03-15 17:04:00,
2013-03-15 13:09:00,0.0,0.0,29.97,NW,312,11.0,17.4,0,0.00,,---,0.00,VWS V14.01,2013-03-15 17:09:00,
2013-03-15 13:14:00,0.0,0.0,29.97,WNW,295,14.1,14.5,0,0.00,,---,0.00,VWS V14.01,2013-03-15 17:14:00,
2013-03-15 13:19:00,0.0,0.0,29.97,WSW,255,9.2,10.1,0,0.00,,---,0.00,VWS V14.01,2013-03-15 17:19:00,
2013-03-15 13:24:00,0.0,0.0,29.97,WNW,302,5.8,8.3,0,0.00,,---,0.00,VWS V14.01,2013-03-15 17:24:00,
2013-03-15 13:29:00,0.0,0.0,29.97,NW,319,5.8,13.2,0,0.00,,---,0.00,VWS V14.01,2013-03-15 17:29:00,
2013-03-15 13:34:00,0.0,0.0,29.97,West,276,8.7,13.2,0,0.00,,---,0.00,VWS V14.01,2013-03-15 17:34:00,
2013-03-15 13:39:00,0.0,0.0,29.97,West,281,10.1,10.1,0,0.00,,---,0.00,VWS V14.01,2013-03-15 17:39:00,
2013-03-15 13:44:00,0.0,0.0,29.94,West,260,15.4,17.0,0,0.00,,---,0.00,VWS V14.01,2013-03-15 17:44:00,
2013-03-15 13:49:00,0.0,0.0,29.94,WSW,258,18.3,18.3,0,0.00,,---,0.00,VWS V14.01,2013-03-15 17:49:00,
2013-03-15 13:54:00,0.0,0.0,29.94,West,268,13.2,14.5,0,0.00,,---,0.00,VWS V14.01,2013-03-15 17:54:00,
2013-03-15 13:59:00,0.0,0.0,29.94,West,274,12.3,15.0,0,0.00,,---,0.00,VWS V14.01,2013-03-15 17:59:00,
2013-03-15 14:04:00,0.0,0.0,29.94,West,268,11.0,13.2,0,0.00,,---,0.00,VWS V14.01,2013-03-15 18:04:00,
2013-03-15 14:09:00,0.0,0.0,29.94,NW,314,8.1,17.0,0,0.00,,---,0.00,VWS V14.01,2013-03-15 18:09:00,
2013-03-15 14:14:00,0.0,0.0,29.94,WNW,303,13.2,13.2,0,0.00,,---,0.00,VWS V14.01,2013-03-15 18:14:00,
2013-03-15 14:19:00,0.0,0.0,29.94,West,268,12.8,17.4,0,0.00,,---,0.00,VWS V14.01,2013-03-15 18:19:00,
2013-03-15 14:24:00,0.0,0.0,29.94,West,277,13.2,13.2,0,0.00,,---,0.00,VWS V14.01,2013-03-15 18:24:00,
2013-03-15 14:29:00,0.0,0.0,29.91,WNW,303,12.8,12.8,0,0.00,,---,0.00,VWS V14.01,2013-03-15 18:29:00,
2013-03-15 14:34:00,0.0,0.0,29.91,WSW,240,14.5,14.5,0,0.00,,---,0.00,VWS V14.01,2013-03-15 18:34:00,
2013-03-15 14:39:00,0.0,0.0,29.91,WSW,245,9.6,12.3,0,0.00,,---,0.00,VWS V14.01,2013-03-15 18:39:00,
2013-03-15 14:44:00,0.0,0.0,29.91,West,281,12.3,12.3,0,0.00,,---,0.00,VWS V14.01,2013-03-15 18:44:00,
2013-03-15 14:49:00,0.0,0.0,29.91,West,278,13.2,13.2,0,0.00,,---,0.00,VWS V14.01,2013-03-15 18:49:00,
2013-03-15 14:54:00,0.0,0.0,29.91,West,277,8.1,11.0,0,0.00,,---,0.00,VWS V14.01,2013-03-15 18:54:00,
2013-03-15 14:59:00,0.0,0.0,29.91,WSW,246,10.1,11.0,0,0.00,,---,0.00,VWS V14.01,2013-03-15 18:59:00,
2013-03-15 15:04:00,0.0,0.0,29.91,WNW,288,10.1,10.1,0,0.00,,---,0.00,VWS V14.01,2013-03-15 19:04:00,
2013-03-15 15:09:00,0.0,0.0,29.91,West,267,6.3,12.8,0,0.00,,---,0.00,VWS V14.01,2013-03-15 19:09:00,
2013-03-15 15:14:00,0.0,0.0,29.88,WNW,289,5.8,8.1,0,0.00,,---,0.00,VWS V14.01,2013-03-15 19:14:00,
2013-03-15 15:19:00,0.0,0.0,29.88,WNW,285,17.9,17.9,0,0.00,,---,0.00,VWS V14.01,2013-03-15 19:19:00,
2013-03-15 15:24:00,0.0,0.0,29.88,WNW,291,8.1,12.8,0,0.00,,---,0.00,VWS V14.01,2013-03-15 19:24:00,
2013-03-15 15:29:00,0.0,0.0,29.88,WNW,288,5.4,8.1,0,0.00,,---,0.00,VWS V14.01,2013-03-15 19:29:00,
2013-03-15 15:34:00,0.0,0.0,29.88,SW,234,11.0,15.4,0,0.00,,---,0.00,VWS V14.01,2013-03-15 19:34:00,
2013-03-15 15:39:00,0.0,0.0,29.88,WSW,250,13.2,16.3,0,0.00,,---,0.00,VWS V14.01,2013-03-15 19:39:00,
2013-03-15 15:44:00,0.0,0.0,29.88,West,260,14.5,14.5,0,0.00,,---,0.00,VWS V14.01,2013-03-15 19:44:00,
2013-03-15 15:49:00,0.0,0.0,29.88,SW,229,13.2,15.4,0,0.00,,---,0.00,VWS V14.01,2013-03-15 19:49:00,
2013-03-15 15:54:00,0.0,0.0,29.88,SW,227,8.7,8.7,0,0.00,,---,0.00,VWS V14.01,2013-03-15 19:54:00,
2013-03-15 15:59:00,0.0,0.0,29.88,West,265,12.8,12.8,0,0.00,,---,0.00,VWS V14.01,2013-03-15 19:59:00,
2013-03-15 16:04:00,0.0,0.0,29.88,West,266,7.6,10.5,0,0.00,,---,0.00,VWS V14.01,2013-03-15 20:04:00,
2013-03-15 16:09:00,0.0,0.0,29.88,West,265,10.1,13.2,0,0.00,,---,0.00,VWS V14.01,2013-03-15 20:09:00,
2013-03-15 16:14:00,0.0,0.0,29.88,SW,215,9.6,10.5,0,0.00,,---,0.00,VWS V14.01,2013-03-15 20:14:00,
2013-03-15 16:19:00,0.0,0.0,29.88,WSW,243,11.9,11.9,0,0.00,,---,0.00,VWS V14.01,2013-03-15 20:19:00,
2013-03-15 16:24:00,0.0,0.0,29.88,SW,228,8.3,11.0,0,0.00,,---,0.00,VWS V14.01,2013-03-15 20:24:00,
2013-03-15 16:29:00,0.0,0.0,29.85,SW,229,9.2,15.0,0,0.00,,---,0.00,VWS V14.01,2013-03-15 20:29:00,
2013-03-15 16:34:00,0.0,0.0,29.85,West,265,8.3,15.4,0,0.00,,---,0.00,VWS V14.01,2013-03-15 20:34:00,
2013-03-15 16:39:00,0.0,0.0,29.85,WSW,254,12.8,16.3,0,0.00,,---,0.00,VWS V14.01,2013-03-15 20:39:00,
2013-03-15 16:44:00,0.0,0.0,29.85,West,275,11.9,15.9,0,0.00,,---,0.00,VWS V14.01,2013-03-15 20:44:00,
2013-03-15 16:49:00,0.0,0.0,29.85,SW,218,12.3,23.7,0,0.00,,---,0.00,VWS V14.01,2013-03-15 20:49:00,
2013-03-15 16:54:00,0.0,0.0,29.85,WSW,245,12.8,12.8,0,0.00,,---,0.00,VWS V14.01,2013-03-15 20:54:00,
2013-03-15 16:59:00,0.0,0.0,29.85,WNW,286,10.5,16.3,0,0.00,,---,0.00,VWS V14.01,2013-03-15 20:59:00,
2013-03-15 17:04:00,0.0,0.0,29.85,WSW,246,14.5,14.5,0,0.00,,---,0.00,VWS V14.01,2013-03-15 21:04:00,
2013-03-15 17:09:00,0.0,0.0,29.85,West,272,12.8,14.5,0,0.00,,---,0.00,VWS V14.01,2013-03-15 21:09:00,
2013-03-15 17:14:00,0.0,0.0,29.83,WSW,251,12.3,15.4,0,0.00,,---,0.00,VWS V14.01,2013-03-15 21:14:00,
2013-03-15 17:19:00,0.0,0.0,29.83,WSW,238,13.2,13.2,0,0.00,,---,0.00,VWS V14.01,2013-03-15 21:19:00,
2013-03-15 17:24:00,0.0,0.0,29.83,WSW,257,8.3,10.5,0,0.00,,---,0.00,VWS V14.01,2013-03-15 21:24:00,
2013-03-15 17:29:00,0.0,0.0,29.83,West,260,9.2,11.4,0,0.00,,---,0.00,VWS V14.01,2013-03-15 21:29:00,
2013-03-15 17:34:00,0.0,0.0,29.83,WNW,286,11.0,12.8,0,0.00,,---,0.00,VWS V14.01,2013-03-15 21:34:00,
2013-03-15 17:39:00,0.0,0.0,29.83,SSW,209,11.9,13.2,0,0.00,,---,0.00,VWS V14.01,2013-03-15 21:39:00,
2013-03-15 17:44:00,0.0,0.0,29.83,West,265,12.8,15.4,0,0.00,,---,0.00,VWS V14.01,2013-03-15 21:44:00,
2013-03-15 17:49:00,0.0,0.0,29.83,West,267,10.1,10.5,0,0.00,,---,0.00,VWS V14.01,2013-03-15 21:49:00,
2013-03-15 17:54:00,0.0,0.0,29.83,West,276,10.1,10.1,0,0.00,,---,0.00,VWS V14.01,2013-03-15 21:54:00,
2013-03-15 17:59:00,0.0,0.0,29.83,WNW,295,11.0,14.1,0,0.00,,---,0.00,VWS V14.01,2013-03-15 21:59:00,
2013-03-15 18:04:00,0.0,0.0,29.83,West,281,14.5,14.5,0,0.00,,---,0.00,VWS V14.01,2013-03-15 22:04:00,
2013-03-15 18:09:00,0.0,0.0,29.83,WSW,246,11.4,14.1,0,0.00,,---,0.00,VWS V14.01,2013-03-15 22:09:00,
2013-03-15 18:14:00,0.0,0.0,29.83,WSW,253,12.8,15.4,0,0.00,,---,0.00,VWS V14.01,2013-03-15 22:14:00,
2013-03-15 18:19:00,0.0,0.0,29.83,WSW,257,11.0,15.4,0,0.00,,---,0.00,VWS V14.01,2013-03-15 22:19:00,
2013-03-15 18:24:00,0.0,0.0,29.83,West,265,5.8,12.3,0,0.00,,---,0.00,VWS V14.01,2013-03-15 22:24:00,
2013-03-15 18:29:00,0.0,0.0,29.80,SW,221,5.4,8.3,0,0.00,,---,0.00,VWS V14.01,2013-03-15 22:29:00,
2013-03-15 18:35:00,0.0,0.0,29.80,West,271,6.3,10.5,0,0.00,,---,0.00,VWS V14.01,2013-03-15 22:35:00,
2013-03-15 18:40:00,0.0,0.0,29.80,WSW,239,7.6,10.1,0,0.00,,---,0.00,VWS V14.01,2013-03-15 22:40:00,
2013-03-15 18:45:00,0.0,0.0,29.83,SW,221,5.8,8.1,0,0.00,,---,0.00,VWS V14.01,2013-03-15 22:45:00,
2013-03-15 18:50:00,0.0,0.0,29.83,WSW,242,9.2,11.0,0,0.00,,---,0.00,VWS V14.01,2013-03-15 22:50:00,
2013-03-15 18:55:00,0.0,0.0,29.83,West,266,6.3,10.5,0,0.00,,---,0.00,VWS V14.01,2013-03-15 22:55:00,
2013-03-15 19:00:00,0.0,0.0,29.83,West,260,11.4,11.4,0,0.00,,---,0.00,VWS V14.01,2013-03-15 23:00:00,
2013-03-15 19:05:00,0.0,0.0,29.83,WSW,248,8.1,8.1,0,0.00,,---,0.00,VWS V14.01,2013-03-15 23:05:00,
2013-03-15 19:10:00,0.0,0.0,29.83,WSW,252,6.3,11.0,0,0.00,,---,0.00,VWS V14.01,2013-03-15 23:10:00,
2013-03-15 19:15:00,0.0,0.0,29.83,WSW,254,9.2,10.5,0,0.00,,---,0.00,VWS V14.01,2013-03-15 23:15:00,
2013-03-15 19:20:00,0.0,0.0,29.83,SW,217,6.3,8.3,0,0.00,,---,0.00,VWS V14.01,2013-03-15 23:20:00,
2013-03-15 19:25:00,0.0,0.0,29.83,SSW,193,10.1,10.1,0,0.00,,---,0.00,VWS V14.01,2013-03-15 23:25:00,
2013-03-15 19:30:00,0.0,0.0,29.83,SW,218,7.6,7.6,0,0.00,,---,0.00,VWS V14.01,2013-03-15 23:30:00,
2013-03-15 19:35:00,0.0,0.0,29.83,SW,218,8.3,8.7,0,0.00,,---,0.00,VWS V14.01,2013-03-15 23:35:00,
2013-03-15 19:40:00,0.0,0.0,29.83,WSW,250,5.8,10.5,0,0.00,,---,0.00,VWS V14.01,2013-03-15 23:40:00,
2013-03-15 19:45:00,0.0,0.0,29.83,South,172,6.3,15.4,0,0.00,,---,0.00,VWS V14.01,2013-03-15 23:45:00,
2013-03-15 19:50:00,0.0,0.0,29.83,WSW,249,11.4,12.3,0,0.00,,---,0.00,VWS V14.01,2013-03-15 23:50:00,
2013-03-15 19:55:00,0.0,0.0,29.83,WSW,252,11.0,12.3,0,0.00,,---,0.00,VWS V14.01,2013-03-15 23:55:00,
2013-03-15 20:00:00,0.0,0.0,29.83,West,262,8.3,12.3,0,0.00,,---,0.00,VWS V14.01,2013-03-16 00:00:00,
2013-03-15 20:05:00,0.0,0.0,29.83,West,262,15.0,15.0,0,0.00,,---,0.00,VWS V14.01,2013-03-16 00:05:00,
2013-03-15 20:10:00,0.0,0.0,29.83,WNW,300,11.9,12.8,0,0.00,,---,0.00,VWS V14.01,2013-03-16 00:10:00,
2013-03-15 20:15:00,0.0,0.0,29.83,WSW,252,11.9,17.0,0,0.00,,---,0.00,VWS V14.01,2013-03-16 00:15:00,
2013-03-15 20:20:00,0.0,0.0,29.83,SW,236,8.7,10.5,0,0.00,,---,0.00,VWS V14.01,2013-03-16 00:20:00,
2013-03-15 20:25:00,0.0,0.0,29.83,SW,235,11.9,11.9,0,0.00,,---,0.00,VWS V14.01,2013-03-16 00:25:00,
2013-03-15 20:30:00,0.0,0.0,29.83,WNW,287,4.0,10.1,0,0.00,,---,0.00,VWS V14.01,2013-03-16 00:30:00,
2013-03-15 20:35:00,0.0,0.0,29.83,WSW,239,10.5,12.3,0,0.00,,---,0.00,VWS V14.01,2013-03-16 00:35:00,
2013-03-15 20:40:00,0.0,0.0,29.83,WSW,256,10.1,10.1,0,0.00,,---,0.00,VWS V14.01,2013-03-16 00:40:00,
2013-03-15 20:45:00,0.0,0.0,29.83,SSW,198,5.8,5.8,0,0.00,,---,0.00,VWS V14.01,2013-03-16 00:45:00,
2013-03-15 20:50:00,0.0,0.0,29.83,WSW,258,10.5,10.5,0,0.00,,---,0.00,VWS V14.01,2013-03-16 00:50:00,
2013-03-15 20:55:00,0.0,0.0,29.83,WSW,241,8.1,12.3,0,0.00,,---,0.00,VWS V14.01,2013-03-16 00:55:00,
2013-03-15 21:00:00,0.0,0.0,29.83,WSW,250,10.5,11.0,0,0.00,,---,0.00,VWS V14.01,2013-03-16 01:00:00,
2013-03-15 21:05:00,0.0,0.0,29.83,WSW,246,13.2,13.2,0,0.00,,---,0.00,VWS V14.01,2013-03-16 01:05:00,
2013-03-15 21:10:00,0.0,0.0,29.83,West,277,10.5,10.5,0,0.00,,---,0.00,VWS V14.01,2013-03-16 01:10:00,
2013-03-15 21:15:00,0.0,0.0,29.83,WSW,241,7.6,8.3,0,0.00,,---,0.00,VWS V14.01,2013-03-16 01:15:00,
2013-03-15 21:20:00,0.0,0.0,29.83,West,259,12.3,12.3,0,0.00,,---,0.00,VWS V14.01,2013-03-16 01:20:00,
2013-03-15 21:25:00,0.0,0.0,29.83,WSW,241,8.7,8.7,0,0.00,,---,0.00,VWS V14.01,2013-03-16 01:25:00,
2013-03-15 21:30:00,0.0,0.0,29.83,West,262,8.3,8.3,0,0.00,,---,0.00,VWS V14.01,2013-03-16 01:30:00,
2013-03-15 21:35:00,0.0,0.0,29.83,WSW,249,6.3,8.3,0,0.00,,---,0.00,VWS V14.01,2013-03-16 01:35:00,
2013-03-15 21:40:00,0.0,0.0,29.83,West,261,10.1,10.1,0,0.00,,---,0.00,VWS V14.01,2013-03-16 01:40:00,
2013-03-15 21:45:00,0.0,0.0,29.83,WNW,296,6.3,10.1,0,0.00,,---,0.00,VWS V14.01,2013-03-16 01:45:00,
2013-03-15 21:50:00,0.0,0.0,29.83,West,274,8.1,8.1,0,0.00,,---,0.00,VWS V14.01,2013-03-16 01:50:00,
2013-03-15 21:55:00,0.0,0.0,29.83,SW,235,9.6,9.6,0,0.00,,---,0.00,VWS V14.01,2013-03-16 01:55:00,
2013-03-15 22:00:00,0.0,0.0,29.83,SW,232,5.8,8.1,0,0.00,,---,0.00,VWS V14.01,2013-03-16 02:00:00,
2013-03-15 22:05:00,0.0,0.0,29.83,West,260,5.4,5.4,0,0.00,,---,0.00,VWS V14.01,2013-03-16 02:05:00,
2013-03-15 22:10:00,0.0,0.0,29.83,SW,224,5.8,7.2,0,0.00,,---,0.00,VWS V14.01,2013-03-16 02:10:00,
2013-03-15 22:15:00,0.0,0.0,29.83,SW,229,8.7,8.7,0,0.00,,---,0.00,VWS V14.01,2013-03-16 02:15:00,
2013-03-15 22:20:00,0.0,0.0,29.83,WSW,245,6.3,8.3,0,0.00,,---,0.00,VWS V14.01,2013-03-16 02:20:00,
2013-03-15 22:25:00,0.0,0.0,29.83,SSW,208,6.3,8.7,0,0.00,,---,0.00,VWS V14.01,2013-03-16 02:25:00,
2013-03-15 22:30:00,0.0,0.0,29.83,West,267,5.8,6.3,0,0.00,,---,0.00,VWS V14.01,2013-03-16 02:30:00,
2013-03-15 22:35:00,0.0,0.0,29.83,West,260,6.3,6.3,0,0.00,,---,0.00,VWS V14.01,2013-03-16 02:35:00,
2013-03-15 22:40:00,0.0,0.0,29.83,SW,235,5.8,5.8,0,0.00,,---,0.00,VWS V14.01,2013-03-16 02:40:00,
2013-03-15 22:45:00,0.0,0.0,29.83,WSW,237,5.8,5.8,0,0.00,,---,0.00,VWS V14.01,2013-03-16 02:45:00,
2013-03-15 22:50:00,0.0,0.0,29.83,WSW,246,4.0,6.3,0,0.00,,---,0.00,VWS V14.01,2013-03-16 02:50:00,
2013-03-15 22:55:00,0.0,0.0,29.83,West,272,3.1,3.6,0,0.00,,---,0.00,VWS V14.01,2013-03-16 02:55:00,
2013-03-15 23:00:00,0.0,0.0,29.83,West,259,4.9,4.9,0,0.00,,---,0.00,VWS V14.01,2013-03-16 03:00:00,
2013-03-15 23:05:00,0.0,0.0,29.83,WSW,240,4.0,4.0,0,0.00,,---,0.00,VWS V14.01,2013-03-16 03:05:00,
2013-03-15 23:10:00,0.0,0.0,29.83,WSW,255,4.9,4.9,0,0.00,,---,0.00,VWS V14.01,2013-03-16 03:10:00,
2013-03-15 23:15:00,0.0,0.0,29.83,West,266,4.0,4.0,0,0.00,,---,0.00,VWS V14.01,2013-03-16 03:15:00,
2013-03-15 23:20:00,0.0,0.0,29.83,West,263,2.7,3.6,0,0.00,,---,0.00,VWS V14.01,2013-03-16 03:20:00,
2013-03-15 23:25:00,0.0,0.0,29.83,WSW,251,3.1,4.9,0,0.00,,---,0.00,VWS V14.01,2013-03-16 03:25:00,
2013-03-15 23:30:00,0.0,0.0,29.83,West,265,4.0,4.9,0,0.00,,---,0.00,VWS V14.01,2013-03-16 03:30:00,
2013-03-15 23:35:00,0.0,0.0,29.83,WNW,291,3.6,4.0,0,0.00,,---,0.00,VWS V14.01,2013-03-16 03:35:00,
2013-03-15 23:40:00,0.0,0.0,29.83,West,279,3.6,4.0,0,0.00,,---,0.00,VWS V14.01,2013-03-16 03:40:00,
2013-03-15 23:45:00,0.0,0.0,29.83,WNW,294,3.1,3.1,0,0.00,,---,0.00,VWS V14.01,2013-03-16 03:45:00,
2013-03-15 23:50:00,0.0,0.0,29.83,WNW,294,2.7,3.6,0,0.00,,---,0.00,VWS V14.01,2013-03-16 03:50:00,
2013-03-15 23:55:00,0.0,0.0,29.83,WNW,294,2.7,2.7,0,0.00,,---,0.00,VWS V14.01,2013-03-16 03:55:00,